sensor_id;sensor_type;location;lat;lon;timestamp;pressure;altitude;pressure_sealevel;temperature;humidity
59063;BME280;44851;45.648;9.004;2023-04-19T00:00:16;99074.97;;;15.03;45.82
59063;BME280;44851;45.648;9.004;2023-04-19T00:02:42;99079.22;;;15.04;46.70
59063;BME280;44851;45.648;9.004;2023-04-19T00:05:08;99072.00;;;14.98;46.97
59063;BME280;44851;45.648;9.004;2023-04-19T00:07:34;99070.06;;;14.92;45.51
59063;BME280;44851;45.648;9.004;2023-04-19T00:10:00;99080.22;;;14.95;47.76
59063;BME280;44851;45.648;9.004;2023-04-19T00:12:25;99073.66;;;14.75;44.70
59063;BME280;44851;45.648;9.004;2023-04-19T00:14:51;99066.94;;;14.81;48.35
59063;BME280;44851;45.648;9.004;2023-04-19T00:17:16;99072.50;;;14.86;46.94
59063;BME280;44851;45.648;9.004;2023-04-19T00:19:42;99074.31;;;14.85;47.57
59063;BME280;44851;45.648;9.004;2023-04-19T00:22:08;99073.34;;;14.78;46.79
59063;BME280;44851;45.648;9.004;2023-04-19T00:24:34;99076.94;;;14.77;47.91
59063;BME280;44851;45.648;9.004;2023-04-19T00:26:59;99074.97;;;14.79;47.35
59063;BME280;44851;45.648;9.004;2023-04-19T00:29:24;99073.00;;;14.73;46.24
59063;BME280;44851;45.648;9.004;2023-04-19T00:31:50;99069.75;;;14.71;46.82
59063;BME280;44851;45.648;9.004;2023-04-19T00:34:17;99072.69;;;14.68;46.80
59063;BME280;44851;45.648;9.004;2023-04-19T00:36:42;99066.78;;;14.58;48.17
59063;BME280;44851;45.648;9.004;2023-04-19T00:39:08;99066.78;;;14.58;47.24
59063;BME280;44851;45.648;9.004;2023-04-19T00:41:33;99058.91;;;14.58;48.65
59063;BME280;44851;45.648;9.004;2023-04-19T00:43:58;99057.59;;;14.45;47.89
59063;BME280;44851;45.648;9.004;2023-04-19T00:46:24;99060.88;;;14.39;46.20
59063;BME280;44851;45.648;9.004;2023-04-19T00:48:50;99057.59;;;14.45;47.50
59063;BME280;44851;45.648;9.004;2023-04-19T00:51:16;99055.59;;;14.31;46.51
59063;BME280;44851;45.648;9.004;2023-04-19T00:53:42;99063.16;;;14.42;47.60
59063;BME280;44851;45.648;9.004;2023-04-19T00:56:08;99056.41;;;14.32;47.81
59063;BME280;44851;45.648;9.004;2023-04-19T00:58:36;99054.13;;;14.37;48.19
59063;BME280;44851;45.648;9.004;2023-04-19T01:01:02;99048.06;;;14.28;47.37
59063;BME280;44851;45.648;9.004;2023-04-19T01:03:29;99051.00;;;14.25;46.59
59063;BME280;44851;45.648;9.004;2023-04-19T01:05:55;99050.94;;;14.09;47.46
59063;BME280;44851;45.648;9.004;2023-04-19T01:08:21;99047.38;;;14.18;48.21
59063;BME280;44851;45.648;9.004;2023-04-19T01:10:46;99051.94;;;14.16;48.27
59063;BME280;44851;45.648;9.004;2023-04-19T01:13:12;99051.25;;;14.06;48.56
59063;BME280;44851;45.648;9.004;2023-04-19T01:15:37;99049.78;;;14.03;47.06
59063;BME280;44851;45.648;9.004;2023-04-19T01:18:03;99047.34;;;14.10;48.84
59063;BME280;44851;45.648;9.004;2023-04-19T01:20:28;99049.63;;;14.05;49.21
59063;BME280;44851;45.648;9.004;2023-04-19T01:22:54;99046.00;;;14.06;49.80
59063;BME280;44851;45.648;9.004;2023-04-19T01:25:19;99037.81;;;14.00;49.30
59063;BME280;44851;45.648;9.004;2023-04-19T01:27:45;99042.75;;;14.04;50.50
59063;BME280;44851;45.648;9.004;2023-04-19T01:30:11;99029.63;;;14.04;49.62
59063;BME280;44851;45.648;9.004;2023-04-19T01:32:36;99034.41;;;14.08;50.41
59063;BME280;44851;45.648;9.004;2023-04-19T01:35:02;99028.66;;;14.05;49.59
59063;BME280;44851;45.648;9.004;2023-04-19T01:37:28;99032.09;;;13.97;48.27
59063;BME280;44851;45.648;9.004;2023-04-19T01:39:53;99032.25;;;14.04;49.79
59063;BME280;44851;45.648;9.004;2023-04-19T01:42:19;99027.31;;;14.00;49.80
59063;BME280;44851;45.648;9.004;2023-04-19T01:44:44;99032.75;;;13.99;49.56
59063;BME280;44851;45.648;9.004;2023-04-19T01:47:10;99030.28;;;14.06;49.78
59063;BME280;44851;45.648;9.004;2023-04-19T01:49:35;99035.88;;;14.03;49.70
59063;BME280;44851;45.648;9.004;2023-04-19T01:52:01;99034.06;;;14.03;49.47
59063;BME280;44851;45.648;9.004;2023-04-19T01:54:26;99028.66;;;13.96;49.76
59063;BME280;44851;45.648;9.004;2023-04-19T01:56:52;99027.31;;;14.00;50.56
59063;BME280;44851;45.648;9.004;2023-04-19T01:59:17;99028.44;;;13.90;48.73
59063;BME280;44851;45.648;9.004;2023-04-19T02:01:42;99033.22;;;13.94;49.96
59063;BME280;44851;45.648;9.004;2023-04-19T02:04:09;99020.75;;;13.80;49.70
59063;BME280;44851;45.648;9.004;2023-04-19T02:06:34;99024.38;;;13.87;49.64
59063;BME280;44851;45.648;9.004;2023-04-19T02:09:00;99022.72;;;13.86;50.18
59063;BME280;44851;45.648;9.004;2023-04-19T02:11:25;99026.16;;;13.87;49.38
59063;BME280;44851;45.648;9.004;2023-04-19T02:13:51;99026.00;;;13.88;49.79
59063;BME280;44851;45.648;9.004;2023-04-19T02:16:16;99018.13;;;13.80;49.96
59063;BME280;44851;45.648;9.004;2023-04-19T02:18:41;99018.78;;;13.82;50.54
59063;BME280;44851;45.648;9.004;2023-04-19T02:21:08;99015.00;;;13.77;49.45
59063;BME280;44851;45.648;9.004;2023-04-19T02:23:34;99014.50;;;13.73;49.67
59063;BME280;44851;45.648;9.004;2023-04-19T02:26:00;99023.09;;;13.57;48.17
59063;BME280;44851;45.648;9.004;2023-04-19T02:28:30;99016.94;;;13.66;49.65
59063;BME280;44851;45.648;9.004;2023-04-19T02:30:56;99017.28;;;13.71;50.23
59063;BME280;44851;45.648;9.004;2023-04-19T02:33:22;99016.47;;;13.71;50.02
59063;BME280;44851;45.648;9.004;2023-04-19T02:35:48;99014.47;;;13.65;50.21
59063;BME280;44851;45.648;9.004;2023-04-19T02:38:13;99011.84;;;13.65;50.56
59063;BME280;44851;45.648;9.004;2023-04-19T02:40:39;99009.72;;;13.68;51.09
59063;BME280;44851;45.648;9.004;2023-04-19T02:43:04;98998.72;;;13.57;50.31
59063;BME280;44851;45.648;9.004;2023-04-19T02:45:30;99008.03;;;13.51;50.48
59063;BME280;44851;45.648;9.004;2023-04-19T02:47:55;99007.25;;;13.59;51.38
59063;BME280;44851;45.648;9.004;2023-04-19T02:50:21;99007.56;;;13.56;51.32
59063;BME280;44851;45.648;9.004;2023-04-19T02:52:46;99003.16;;;13.56;50.45
59063;BME280;44851;45.648;9.004;2023-04-19T02:55:12;99000.00;;;13.53;51.16
59063;BME280;44851;45.648;9.004;2023-04-19T02:57:37;99000.81;;;13.45;51.13
59063;BME280;44851;45.648;9.004;2023-04-19T03:00:03;98997.88;;;13.48;51.09
59063;BME280;44851;45.648;9.004;2023-04-19T03:02:30;98995.28;;;13.48;50.48
59063;BME280;44851;45.648;9.004;2023-04-19T03:04:55;98992.06;;;13.28;50.16
59063;BME280;44851;45.648;9.004;2023-04-19T03:07:20;98990.47;;;13.35;51.45
59063;BME280;44851;45.648;9.004;2023-04-19T03:09:46;98990.78;;;13.32;50.58
59063;BME280;44851;45.648;9.004;2023-04-19T03:12:11;98992.03;;;13.20;49.65
59063;BME280;44851;45.648;9.004;2023-04-19T03:14:37;98999.81;;;13.12;49.45
59063;BME280;44851;45.648;9.004;2023-04-19T03:17:02;98989.28;;;13.21;50.31
59063;BME280;44851;45.648;9.004;2023-04-19T03:19:28;98996.25;;;13.13;50.20
59063;BME280;44851;45.648;9.004;2023-04-19T03:21:53;98988.75;;;13.18;50.77
59063;BME280;44851;45.648;9.004;2023-04-19T03:24:19;98995.22;;;13.06;49.72
59063;BME280;44851;45.648;9.004;2023-04-19T03:26:44;98992.94;;;13.11;50.87
59063;BME280;44851;45.648;9.004;2023-04-19T03:29:10;98990.63;;;13.08;50.30
59063;BME280;44851;45.648;9.004;2023-04-19T03:31:37;98990.38;;;12.93;48.64
59063;BME280;44851;45.648;9.004;2023-04-19T03:34:02;98985.84;;;13.03;51.47
59063;BME280;44851;45.648;9.004;2023-04-19T03:36:28;98984.03;;;12.95;51.64
59063;BME280;44851;45.648;9.004;2023-04-19T03:38:53;98983.31;;;12.85;51.46
59063;BME280;44851;45.648;9.004;2023-04-19T03:41:19;98984.31;;;12.92;51.46
59063;BME280;44851;45.648;9.004;2023-04-19T03:43:45;98983.44;;;12.84;52.09
59063;BME280;44851;45.648;9.004;2023-04-19T03:46:10;98982.69;;;12.91;51.92
59063;BME280;44851;45.648;9.004;2023-04-19T03:48:36;98977.09;;;12.86;50.92
59063;BME280;44851;45.648;9.004;2023-04-19T03:51:01;98983.81;;;12.89;51.69
59063;BME280;44851;45.648;9.004;2023-04-19T03:53:26;98980.72;;;12.93;51.50
59063;BME280;44851;45.648;9.004;2023-04-19T03:55:52;98978.72;;;12.87;51.02
59063;BME280;44851;45.648;9.004;2023-04-19T03:58:17;98971.16;;;12.76;50.60
59063;BME280;44851;45.648;9.004;2023-04-19T04:00:43;98973.75;;;12.76;51.46
59063;BME280;44851;45.648;9.004;2023-04-19T04:03:08;98975.97;;;12.63;50.72
59063;BME280;44851;45.648;9.004;2023-04-19T04:05:34;98981.88;;;12.65;50.86
59063;BME280;44851;45.648;9.004;2023-04-19T04:07:59;98979.50;;;12.54;50.63
59063;BME280;44851;45.648;9.004;2023-04-19T04:10:25;98982.19;;;12.44;50.77
59063;BME280;44851;45.648;9.004;2023-04-19T04:12:50;98977.91;;;12.61;51.62
59063;BME280;44851;45.648;9.004;2023-04-19T04:15:16;98974.91;;;12.74;51.00
59063;BME280;44851;45.648;9.004;2023-04-19T04:17:41;98977.47;;;12.65;50.28
59063;BME280;44851;45.648;9.004;2023-04-19T04:20:07;98978.88;;;12.60;50.70
59063;BME280;44851;45.648;9.004;2023-04-19T04:22:33;98980.22;;;12.64;50.60
59063;BME280;44851;45.648;9.004;2023-04-19T04:24:59;98970.38;;;12.58;50.71
59063;BME280;44851;45.648;9.004;2023-04-19T04:27:25;98973.94;;;12.57;50.65
59063;BME280;44851;45.648;9.004;2023-04-19T04:29:51;98968.88;;;12.55;50.93
59063;BME280;44851;45.648;9.004;2023-04-19T04:32:16;98975.91;;;12.55;51.29
59063;BME280;44851;45.648;9.004;2023-04-19T04:34:47;98975.53;;;12.50;50.65
59063;BME280;44851;45.648;9.004;2023-04-19T04:37:12;98979.22;;;12.39;50.89
59063;BME280;44851;45.648;9.004;2023-04-19T04:39:38;98977.75;;;12.36;50.29
59063;BME280;44851;45.648;9.004;2023-04-19T04:42:05;98981.44;;;12.52;51.64
59063;BME280;44851;45.648;9.004;2023-04-19T04:44:33;98979.31;;;12.47;50.83
59063;BME280;44851;45.648;9.004;2023-04-19T04:46:59;98974.13;;;12.55;51.25
59063;BME280;44851;45.648;9.004;2023-04-19T04:49:25;98979.50;;;12.54;51.40
59063;BME280;44851;45.648;9.004;2023-04-19T04:51:50;98978.00;;;12.51;50.87
59063;BME280;44851;45.648;9.004;2023-04-19T04:54:15;98982.13;;;12.54;50.52
59063;BME280;44851;45.648;9.004;2023-04-19T04:56:41;98981.75;;;12.49;50.97
59063;BME280;44851;45.648;9.004;2023-04-19T04:59:06;98979.50;;;12.54;50.78
59063;BME280;44851;45.648;9.004;2023-04-19T05:01:32;98980.78;;;12.50;50.07
59063;BME280;44851;45.648;9.004;2023-04-19T05:03:57;98980.31;;;12.54;50.16
59063;BME280;44851;45.648;9.004;2023-04-19T05:06:23;98979.13;;;12.49;51.41
59063;BME280;44851;45.648;9.004;2023-04-19T05:08:48;98988.63;;;12.50;51.00
59063;BME280;44851;45.648;9.004;2023-04-19T05:11:14;98980.41;;;12.44;50.56
59063;BME280;44851;45.648;9.004;2023-04-19T05:13:40;98985.63;;;12.44;51.32
59063;BME280;44851;45.648;9.004;2023-04-19T05:16:06;98981.59;;;12.50;51.55
59063;BME280;44851;45.648;9.004;2023-04-19T05:18:31;98973.84;;;12.40;50.25
59063;BME280;44851;45.648;9.004;2023-04-19T05:20:56;98980.03;;;12.39;50.93
59063;BME280;44851;45.648;9.004;2023-04-19T05:23:22;98977.53;;;12.56;52.25
59063;BME280;44851;45.648;9.004;2023-04-19T05:25:47;98981.00;;;12.38;52.13
59063;BME280;44851;45.648;9.004;2023-04-19T05:28:13;98983.91;;;12.53;51.36
59063;BME280;44851;45.648;9.004;2023-04-19T05:30:38;98984.03;;;12.52;51.88
59063;BME280;44851;45.648;9.004;2023-04-19T05:33:04;98985.03;;;12.51;51.52
59063;BME280;44851;45.648;9.004;2023-04-19T05:35:30;98983.13;;;12.61;52.54
59063;BME280;44851;45.648;9.004;2023-04-19T05:37:55;98978.53;;;12.55;51.26
59063;BME280;44851;45.648;9.004;2023-04-19T05:40:21;98978.16;;;12.50;51.48
59063;BME280;44851;45.648;9.004;2023-04-19T05:42:48;98979.19;;;12.57;51.60
59063;BME280;44851;45.648;9.004;2023-04-19T05:45:14;98980.22;;;12.64;52.22
59063;BME280;44851;45.648;9.004;2023-04-19T05:47:40;98974.06;;;12.73;52.53
59063;BME280;44851;45.648;9.004;2023-04-19T05:50:06;98979.00;;;12.76;52.63
59063;BME280;44851;45.648;9.004;2023-04-19T05:52:31;98983.59;;;12.82;51.69
59063;BME280;44851;45.648;9.004;2023-04-19T05:54:57;98985.25;;;12.83;51.23
59063;BME280;44851;45.648;9.004;2023-04-19T05:57:23;98983.97;;;12.87;51.79
59063;BME280;44851;45.648;9.004;2023-04-19T05:59:48;98978.47;;;12.73;50.00
59063;BME280;44851;45.648;9.004;2023-04-19T06:02:14;98982.59;;;12.75;50.29
59063;BME280;44851;45.648;9.004;2023-04-19T06:04:40;98979.06;;;12.84;51.35
59063;BME280;44851;45.648;9.004;2023-04-19T06:07:06;98973.22;;;12.90;50.58
59063;BME280;44851;45.648;9.004;2023-04-19T06:09:31;98975.59;;;13.10;51.59
59063;BME280;44851;45.648;9.004;2023-04-19T06:11:57;98981.38;;;13.13;50.18
59063;BME280;44851;45.648;9.004;2023-04-19T06:14:22;98976.66;;;13.25;51.03
59063;BME280;44851;45.648;9.004;2023-04-19T06:16:47;98979.69;;;13.38;51.55
59063;BME280;44851;45.648;9.004;2023-04-19T06:19:13;98974.63;;;13.45;49.52
59063;BME280;44851;45.648;9.004;2023-04-19T06:21:38;98972.06;;;13.61;47.74
59063;BME280;44851;45.648;9.004;2023-04-19T06:24:07;98968.38;;;13.96;49.45
59063;BME280;44851;45.648;9.004;2023-04-19T06:26:32;98973.94;;;14.10;47.04
59063;BME280;44851;45.648;9.004;2023-04-19T06:28:58;98972.84;;;14.45;47.74
59063;BME280;44851;45.648;9.004;2023-04-19T06:31:23;98971.19;;;14.68;46.63
59063;BME280;44851;45.648;9.004;2023-04-19T06:33:49;98967.19;;;14.97;46.68
59063;BME280;44851;45.648;9.004;2023-04-19T06:36:15;98969.25;;;15.18;47.17
59063;BME280;44851;45.648;9.004;2023-04-19T06:38:40;98965.75;;;15.42;45.72
59063;BME280;44851;45.648;9.004;2023-04-19T06:41:08;98961.34;;;15.65;45.89
59063;BME280;44851;45.648;9.004;2023-04-19T06:43:34;98963.56;;;15.76;46.11
59063;BME280;44851;45.648;9.004;2023-04-19T06:46:00;98963.03;;;15.89;45.98
59063;BME280;44851;45.648;9.004;2023-04-19T06:48:25;98965.59;;;15.97;45.92
59063;BME280;44851;45.648;9.004;2023-04-19T06:50:52;98965.13;;;16.17;45.71
59063;BME280;44851;45.648;9.004;2023-04-19T06:53:18;98971.19;;;16.40;42.47
59063;BME280;44851;45.648;9.004;2023-04-19T06:55:43;98962.19;;;16.57;42.81
59063;BME280;44851;45.648;9.004;2023-04-19T06:58:09;98964.44;;;16.60;43.09
59063;BME280;44851;45.648;9.004;2023-04-19T07:00:35;98963.28;;;16.78;42.77
59063;BME280;44851;45.648;9.004;2023-04-19T07:03:01;98958.56;;;16.88;42.48
59063;BME280;44851;45.648;9.004;2023-04-19T07:05:27;98955.59;;;17.06;41.20
59063;BME280;44851;45.648;9.004;2023-04-19T07:07:52;98956.19;;;17.16;40.75
59063;BME280;44851;45.648;9.004;2023-04-19T07:10:17;98950.97;;;17.23;40.73
59063;BME280;44851;45.648;9.004;2023-04-19T07:12:43;98955.25;;;17.24;40.92
59063;BME280;44851;45.648;9.004;2023-04-19T07:15:09;98951.88;;;17.30;42.45
59063;BME280;44851;45.648;9.004;2023-04-19T07:17:35;98950.03;;;17.45;40.88
59063;BME280;44851;45.648;9.004;2023-04-19T07:20:01;98946.38;;;17.61;42.38
59063;BME280;44851;45.648;9.004;2023-04-19T07:22:28;98949.97;;;17.75;41.14
59063;BME280;44851;45.648;9.004;2023-04-19T07:24:53;98945.13;;;17.78;40.89
59063;BME280;44851;45.648;9.004;2023-04-19T07:27:18;98945.06;;;17.93;40.37
59063;BME280;44851;45.648;9.004;2023-04-19T07:29:44;98946.84;;;17.86;40.16
59063;BME280;44851;45.648;9.004;2023-04-19T07:32:10;98945.00;;;18.01;40.25
59063;BME280;44851;45.648;9.004;2023-04-19T07:34:38;98943.09;;;18.16;39.16
59063;BME280;44851;45.648;9.004;2023-04-19T07:37:05;98938.94;;;18.29;39.96
59063;BME280;44851;45.648;9.004;2023-04-19T07:39:31;98940.06;;;18.41;40.20
59063;BME280;44851;45.648;9.004;2023-04-19T07:41:56;98942.44;;;18.36;38.56
59063;BME280;44851;45.648;9.004;2023-04-19T07:44:22;98937.69;;;18.53;38.54
59063;BME280;44851;45.648;9.004;2023-04-19T07:46:47;98930.94;;;18.72;39.59
59063;BME280;44851;45.648;9.004;2023-04-19T07:49:13;98930.47;;;18.96;38.49
59063;BME280;44851;45.648;9.004;2023-04-19T07:51:38;98935.00;;;19.02;38.18
59063;BME280;44851;45.648;9.004;2023-04-19T07:54:04;98929.97;;;19.07;39.12
59063;BME280;44851;45.648;9.004;2023-04-19T07:56:29;98925.50;;;19.14;37.89
59063;BME280;44851;45.648;9.004;2023-04-19T07:58:55;98918.19;;;19.16;37.48
59063;BME280;44851;45.648;9.004;2023-04-19T08:01:20;98924.34;;;19.24;38.61
59063;BME280;44851;45.648;9.004;2023-04-19T08:03:46;98921.84;;;19.15;36.77
59063;BME280;44851;45.648;9.004;2023-04-19T08:06:11;98919.09;;;19.37;39.55
59063;BME280;44851;45.648;9.004;2023-04-19T08:08:38;98924.81;;;19.47;37.19
59063;BME280;44851;45.648;9.004;2023-04-19T08:11:04;98921.94;;;19.42;37.95
59063;BME280;44851;45.648;9.004;2023-04-19T08:13:30;98919.69;;;19.39;37.53
59063;BME280;44851;45.648;9.004;2023-04-19T08:15:56;98931.94;;;19.53;37.27
59063;BME280;44851;45.648;9.004;2023-04-19T08:18:21;98921.13;;;19.35;39.45
59063;BME280;44851;45.648;9.004;2023-04-19T08:20:47;98916.78;;;19.68;37.67
59063;BME280;44851;45.648;9.004;2023-04-19T08:23:13;98921.91;;;19.90;37.36
59063;BME280;44851;45.648;9.004;2023-04-19T08:25:39;98923.53;;;20.04;35.79
59063;BME280;44851;45.648;9.004;2023-04-19T08:28:05;98917.22;;;20.18;34.81
59063;BME280;44851;45.648;9.004;2023-04-19T08:30:31;98923.16;;;20.40;35.85
59063;BME280;44851;45.648;9.004;2023-04-19T08:32:56;98917.44;;;20.50;37.84
59063;BME280;44851;45.648;9.004;2023-04-19T08:35:22;98913.56;;;20.06;36.20
59063;BME280;44851;45.648;9.004;2023-04-19T08:37:47;98918.84;;;20.33;37.71
59063;BME280;44851;45.648;9.004;2023-04-19T08:40:14;98908.06;;;20.54;37.07
59063;BME280;44851;45.648;9.004;2023-04-19T08:42:41;98900.28;;;20.86;38.18
59063;BME280;44851;45.648;9.004;2023-04-19T08:45:07;98903.38;;;20.69;35.74
59063;BME280;44851;45.648;9.004;2023-04-19T08:47:33;98902.97;;;20.72;35.02
59063;BME280;44851;45.648;9.004;2023-04-19T08:50:00;98898.28;;;20.61;34.28
59063;BME280;44851;45.648;9.004;2023-04-19T08:52:26;98895.66;;;20.48;34.61
59063;BME280;44851;45.648;9.004;2023-04-19T08:54:53;98903.13;;;20.77;35.62
59063;BME280;44851;45.648;9.004;2023-04-19T08:57:19;98900.06;;;20.81;36.47
59063;BME280;44851;45.648;9.004;2023-04-19T08:59:45;98896.78;;;20.92;34.61
59063;BME280;44851;45.648;9.004;2023-04-19T09:02:13;98889.06;;;20.77;32.95
59063;BME280;44851;45.648;9.004;2023-04-19T09:04:39;98886.59;;;20.95;34.82
59063;BME280;44851;45.648;9.004;2023-04-19T09:07:05;98886.88;;;21.25;35.27
59063;BME280;44851;45.648;9.004;2023-04-19T09:09:32;98888.84;;;21.43;34.49
59063;BME280;44851;45.648;9.004;2023-04-19T09:11:58;98881.59;;;21.25;34.31
59063;BME280;44851;45.648;9.004;2023-04-19T09:14:24;98880.25;;;21.48;34.33
59063;BME280;44851;45.648;9.004;2023-04-19T09:16:50;98875.84;;;21.67;34.60
59063;BME280;44851;45.648;9.004;2023-04-19T09:19:19;98873.03;;;21.23;34.09
59063;BME280;44851;45.648;9.004;2023-04-19T09:21:45;98867.50;;;21.32;32.93
59063;BME280;44851;45.648;9.004;2023-04-19T09:24:10;98860.28;;;21.45;34.08
59063;BME280;44851;45.648;9.004;2023-04-19T09:26:36;98853.69;;;21.54;33.84
59063;BME280;44851;45.648;9.004;2023-04-19T09:29:03;98860.41;;;21.89;37.15
59063;BME280;44851;45.648;9.004;2023-04-19T09:31:31;98863.31;;;21.49;33.40
59063;BME280;44851;45.648;9.004;2023-04-19T09:33:56;98855.13;;;21.82;37.03
59063;BME280;44851;45.648;9.004;2023-04-19T09:36:27;98847.75;;;21.91;32.67
59063;BME280;44851;45.648;9.004;2023-04-19T09:38:53;98849.00;;;21.88;33.50
59063;BME280;44851;45.648;9.004;2023-04-19T09:41:18;98843.38;;;21.71;32.17
59063;BME280;44851;45.648;9.004;2023-04-19T09:43:44;98850.41;;;21.59;32.11
59063;BME280;44851;45.648;9.004;2023-04-19T09:48:54;98833.72;;;22.09;35.03
59063;BME280;44851;45.648;9.004;2023-04-19T09:51:21;98829.69;;;22.24;32.78
59063;BME280;44851;45.648;9.004;2023-04-19T09:53:47;98826.16;;;22.30;33.06
59063;BME280;44851;45.648;9.004;2023-04-19T09:56:13;98828.66;;;22.25;31.02
59063;BME280;44851;45.648;9.004;2023-04-19T09:58:38;98824.38;;;22.43;31.03
59063;BME280;44851;45.648;9.004;2023-04-19T10:01:04;98825.91;;;22.57;30.68
59063;BME280;44851;45.648;9.004;2023-04-19T10:03:34;98820.75;;;22.37;30.53
59063;BME280;44851;45.648;9.004;2023-04-19T10:06:00;98819.59;;;22.33;30.06
59063;BME280;44851;45.648;9.004;2023-04-19T10:08:26;98822.91;;;22.28;29.45
59063;BME280;44851;45.648;9.004;2023-04-19T10:10:52;98816.56;;;22.48;31.14
59063;BME280;44851;45.648;9.004;2023-04-19T10:13:20;98815.91;;;22.52;30.37
59063;BME280;44851;45.648;9.004;2023-04-19T10:15:47;98808.47;;;22.79;31.34
59063;BME280;44851;45.648;9.004;2023-04-19T10:18:13;98799.63;;;22.67;29.06
59063;BME280;44851;45.648;9.004;2023-04-19T10:20:54;98801.78;;;22.77;31.64
59063;BME280;44851;45.648;9.004;2023-04-19T10:23:21;98791.28;;;22.82;31.16
59063;BME280;44851;45.648;9.004;2023-04-19T10:25:47;98788.50;;;23.07;30.88
59063;BME280;44851;45.648;9.004;2023-04-19T10:28:16;98784.16;;;22.94;29.86
59063;BME280;44851;45.648;9.004;2023-04-19T10:31:13;98790.34;;;22.58;30.12
59063;BME280;44851;45.648;9.004;2023-04-19T10:33:40;98783.69;;;22.86;30.63
59063;BME280;44851;45.648;9.004;2023-04-19T10:36:09;98780.66;;;23.12;29.62
59063;BME280;44851;45.648;9.004;2023-04-19T10:38:37;98770.03;;;23.12;31.06
59063;BME280;44851;45.648;9.004;2023-04-19T10:41:03;98770.91;;;23.06;31.26
59063;BME280;44851;45.648;9.004;2023-04-19T10:43:36;98768.66;;;23.21;30.04
59063;BME280;44851;45.648;9.004;2023-04-19T10:46:08;98765.16;;;23.39;30.11
59063;BME280;44851;45.648;9.004;2023-04-19T10:48:39;98759.84;;;23.51;30.80
59063;BME280;44851;45.648;9.004;2023-04-19T10:51:14;98753.75;;;23.74;33.11
59063;BME280;44851;45.648;9.004;2023-04-19T10:56:09;98748.53;;;23.91;29.83
59063;BME280;44851;45.648;9.004;2023-04-19T11:04:04;98738.50;;;23.93;30.11
59063;BME280;44851;45.648;9.004;2023-04-19T11:06:31;98724.34;;;23.57;31.00
59063;BME280;44851;45.648;9.004;2023-04-19T11:08:57;98718.91;;;23.75;29.08
59063;BME280;44851;45.648;9.004;2023-04-19T11:11:22;98720.63;;;23.58;28.01
59063;BME280;44851;45.648;9.004;2023-04-19T11:13:49;98715.25;;;23.23;28.89
59063;BME280;44851;45.648;9.004;2023-04-19T11:16:15;98711.94;;;23.27;29.24
59063;BME280;44851;45.648;9.004;2023-04-19T11:18:41;98708.28;;;23.87;32.11
59063;BME280;44851;45.648;9.004;2023-04-19T11:21:12;98693.66;;;23.31;28.38
59063;BME280;44851;45.648;9.004;2023-04-19T11:23:38;98685.13;;;23.41;28.54
59063;BME280;44851;45.648;9.004;2023-04-19T11:26:04;98690.91;;;23.84;29.79
59063;BME280;44851;45.648;9.004;2023-04-19T11:28:32;98679.22;;;24.09;29.86
59063;BME280;44851;45.648;9.004;2023-04-19T11:30:58;98675.72;;;24.20;27.60
59063;BME280;44851;45.648;9.004;2023-04-19T11:33:23;98670.84;;;24.17;26.93
59063;BME280;44851;45.648;9.004;2023-04-19T11:35:50;98669.75;;;24.42;29.24
59063;BME280;44851;45.648;9.004;2023-04-19T11:38:15;98663.88;;;24.68;27.66
59063;BME280;44851;45.648;9.004;2023-04-19T11:40:41;98666.13;;;24.48;26.96
59063;BME280;44851;45.648;9.004;2023-04-19T11:43:06;98654.16;;;24.62;28.52
59063;BME280;44851;45.648;9.004;2023-04-19T11:45:34;98650.44;;;24.63;27.38
59063;BME280;44851;45.648;9.004;2023-04-19T11:48:00;98648.34;;;24.65;27.27
59063;BME280;44851;45.648;9.004;2023-04-19T11:50:40;98645.03;;;24.58;26.53
59063;BME280;44851;45.648;9.004;2023-04-19T11:53:20;98636.41;;;24.84;29.62
59063;BME280;44851;45.648;9.004;2023-04-19T11:58:30;98640.22;;;24.88;25.19
59063;BME280;44851;45.648;9.004;2023-04-19T12:03:31;98625.34;;;24.76;25.77
59063;BME280;44851;45.648;9.004;2023-04-19T12:05:58;98622.13;;;24.90;28.73
59063;BME280;44851;45.648;9.004;2023-04-19T12:08:34;98616.97;;;25.01;26.59
59063;BME280;44851;45.648;9.004;2023-04-19T12:11:01;98610.31;;;25.03;27.02
59063;BME280;44851;45.648;9.004;2023-04-19T12:13:28;98613.03;;;25.20;26.79
59063;BME280;44851;45.648;9.004;2023-04-19T12:15:55;98600.78;;;25.07;25.82
59063;BME280;44851;45.648;9.004;2023-04-19T12:18:21;98591.91;;;25.02;26.85
59063;BME280;44851;45.648;9.004;2023-04-19T12:20:48;98595.53;;;24.96;26.57
59063;BME280;44851;45.648;9.004;2023-04-19T12:23:14;98593.84;;;25.23;27.19
59063;BME280;44851;45.648;9.004;2023-04-19T12:25:41;98585.44;;;24.98;25.32
59063;BME280;44851;45.648;9.004;2023-04-19T12:28:08;98582.22;;;24.96;26.51
59063;BME280;44851;45.648;9.004;2023-04-19T12:30:36;98588.81;;;24.93;26.43
59063;BME280;44851;45.648;9.004;2023-04-19T12:33:02;98586.31;;;25.03;26.97
59063;BME280;44851;45.648;9.004;2023-04-19T12:35:28;98583.97;;;25.07;26.47
59063;BME280;44851;45.648;9.004;2023-04-19T12:37:55;98566.34;;;25.39;27.78
59063;BME280;44851;45.648;9.004;2023-04-19T12:40:22;98565.28;;;25.40;25.87
59063;BME280;44851;45.648;9.004;2023-04-19T12:42:48;98565.56;;;25.22;24.67
59063;BME280;44851;45.648;9.004;2023-04-19T12:45:14;98569.41;;;25.48;25.44
59063;BME280;44851;45.648;9.004;2023-04-19T12:47:43;98559.47;;;25.43;24.99
59063;BME280;44851;45.648;9.004;2023-04-19T12:50:09;98554.72;;;25.29;24.64
59063;BME280;44851;45.648;9.004;2023-04-19T12:52:35;98556.50;;;25.23;24.61
59063;BME280;44851;45.648;9.004;2023-04-19T12:55:00;98546.78;;;25.56;24.39
59063;BME280;44851;45.648;9.004;2023-04-19T12:57:26;98537.19;;;25.55;24.83
59063;BME280;44851;45.648;9.004;2023-04-19T12:59:52;98539.16;;;25.42;24.93
59063;BME280;44851;45.648;9.004;2023-04-19T13:02:17;98534.38;;;25.66;25.96
59063;BME280;44851;45.648;9.004;2023-04-19T13:04:43;98536.72;;;25.41;24.94
59063;BME280;44851;45.648;9.004;2023-04-19T13:07:08;98530.44;;;25.30;24.91
59063;BME280;44851;45.648;9.004;2023-04-19T13:09:33;98522.09;;;25.43;25.15